Strona główna
METAR-TAF:

METAR-TAF

Lotnisko :

Port lotniczy Southampton

Southampton, Anglia

Szerokość geograficzna: 50-54N, Długość geograficzna: 001-24W, wysokość: 9 m

Aktualna obserwacja pogody

Raport powstał 8 godziny i 52 minut temu, godzina 12:50 UTC
Wiatr 9 kt od południowo-południowy wschód, zmienny między wschód i południowo-południowy zachód
Temperatura 14°C
Wilgotność 51%
Ciśnienie 1020 hPa
Widzialność 10 km lub więcej
Mało chmury na wysokości 4000 ft

METAR: EGHI 041250Z 15009KT 100V210 9999 FEW040 14/04 Q1020

czas: 22:42 (21:42 UTC)

Prognoza

Raport powstał 10 godziny i 19 minut temu, godzina 11:23 UTC
Prognoza ważna od 04 godzina 11 UTC do 04 godzina 13 UTC
Wiatr 10 kt od południowo-południowy wschód
Widzialność 10 km lub więcej
Rozproszone chmury na wysokości 3000 ft

TAF: EGHI 041123Z 0411/0413 15010KT 9999 SCT030

Obserwacja i prognoza pogody dla ponad 4000 lotnisk (raport METAR i TAF).

Dostępne stacje oznaczono żółtymi i czerwonymi punktami na mapie.

Najedź kursorem aby zobaczyć nazwę stacji.

Kliknij aby zobaczyć obserwacje i prognozy pogody.

Aby zmienić mapę: kliknij na zielony przycisk z czarnym krzyżykiem, aby powiększyć; na zielony przycisk z myślnikiem, aby pomniejszyć; na zielone strzałki, aby przejść do map sąsiednich.


METAR-TAF: